Airfield :
LOGIN :

Register | Disclaimer

   EN    FR    IT 

 










Legend :    VFR   Marginal VFR   IFR   Intensive IFR   Very Intensive IFR
Visi :
Ceiling :
>= 8 km
>= 3000ft
5 to 8 km
1000 to 3000 ft
1500m to 5 km
500 to 1000 ft
800 to 1500m
200 to 500 ft
< 800m
< 200 ft
Symbols :   Thunderstorms  Fog  Heavy snow  Heavy precipitations  Wind > 20 kt
SIGMETs :     Misc.  Thunderstorms  Icing  Turbulence  Mountain Waves  Volcanic Ashes







- Airport Elevation : 83 ft
- IATA code : LHR
- Download approach charts


EGLL - London Heathrow

CURRENT METAR :
  • 230450Z AUTO 22012KT 9999 SCT020 BKN025 13/11 Q0987 NOSIG

EXPIRED METARs :
  • 230420Z AUTO 22012KT 9999 //////TCU 13/11 Q0987 NOSIG
  • 230350Z AUTO 21014KT 9999 FEW021/// //////TCU 13/11 Q0986 NOSIG
  • 230320Z AUTO 21015KT 9999 -RA SCT015/// BKN024/// BKN036/// //////CB 13/11 Q0986 TEMPO BKN014
  • 230250Z AUTO 21016KT 8000 -RA SCT018/// BKN025/// BKN037/// //////CB 13/11 Q0986 TEMPO 4000 +RA
  • 230220Z AUTO 20018KT 9000 -RA SCT032/// BKN046/// //////TCU 14/11 Q0987 TEMPO 4000 +RA

TAF TAF EGLL
Valid from the 23 at 00:00 until the 24 at 06:00 UTC


222300Z 2300/2406 20020G32KT 9999 SCT025
TEMPO 2300/2307 6000 RA
PROB30
TEMPO 2300/2304 19025G42KT 4000 +SHRA BKN012
BECMG 2304/2307 23018G30KT
TEMPO 2307/2310 26014KT
BECMG 2314/2316 23010KT
BECMG 2321/2324 VRB03KT
PROB40
TEMPO 2321/2404 6000 RA BKN012
No reported NOTAMs for that airfield.
1 SIGMET reported for the London FIR (EGTT) :
 
Severe turbulence
EGTT SIGMET 01 VALID 230200/230600 EGRR
EGTT LONDON FIR SEV TURB FCST SE OF LINE N5000 W00200 - N5500 E00126 SFC/FL060 MOV E 25KT NC=



MET'MAP, your aeronautical weather chart ! - Copyright ORBIFLY December 2007 - Disclaimer

ORBIFLY MET'MAP TEAM :

Programming & Development : Alexandra Zaïnal
Concept & Development : Baudouin d'Aumeries
Co-Development & Prog : Marc-Olivier Méhu
Technical & hardware support : Manuel Goepfert

Contact : metmap@orbifly.com




SOURCES & CREDITS :

   NOAA